createdAt,value
2019-05-11T00:01:33.785Z,4.60
2019-05-11T00:04:06.050Z,4.60
2019-05-11T00:06:40.854Z,4.50
2019-05-11T00:09:13.486Z,4.60
2019-05-11T00:11:47.633Z,4.50
2019-05-11T00:14:20.924Z,4.50
2019-05-11T00:16:54.545Z,4.50
2019-05-11T00:19:27.093Z,4.50
2019-05-11T00:21:59.449Z,4.50
2019-05-11T00:24:31.697Z,4.50
2019-05-11T00:27:03.575Z,4.50
2019-05-11T00:29:33.817Z,4.60
2019-05-11T00:32:08.404Z,4.50
2019-05-11T00:34:42.955Z,4.40
2019-05-11T00:37:15.481Z,4.40
2019-05-11T00:39:48.306Z,4.30
2019-05-11T00:42:19.775Z,4.10
2019-05-11T00:44:54.222Z,4.20
2019-05-11T00:47:28.833Z,4.20
2019-05-11T00:50:01.209Z,4.10
2019-05-11T00:52:33.037Z,4.10
2019-05-11T00:55:08.149Z,4.10
2019-05-11T00:57:39.949Z,4.10
2019-05-11T01:00:10.807Z,4.00
2019-05-11T01:02:42.278Z,4.00
2019-05-11T01:05:14.864Z,3.90
2019-05-11T01:07:47.353Z,4.00
2019-05-11T01:10:25.682Z,4.00
2019-05-11T01:12:52.464Z,4.00
2019-05-11T01:15:22.657Z,3.90
2019-05-11T01:17:53.888Z,3.80
2019-05-11T01:20:23.669Z,3.80
2019-05-11T01:22:58.127Z,3.80
2019-05-11T01:25:31.598Z,3.90
2019-05-11T01:28:03.356Z,4.00
2019-05-11T01:30:38.670Z,4.00
2019-05-11T01:33:12.049Z,3.90
2019-05-11T01:35:45.509Z,3.90
2019-05-11T01:38:18.290Z,3.90
2019-05-11T01:40:58.776Z,3.90
2019-05-11T01:43:25.465Z,3.80
2019-05-11T01:45:58.581Z,3.80
2019-05-11T01:48:30.432Z,3.70
2019-05-11T01:51:00.821Z,3.70
2019-05-11T01:53:33.225Z,3.70
2019-05-11T01:56:07.002Z,3.70
2019-05-11T01:58:41.687Z,3.70
2019-05-11T02:01:12.638Z,3.70
2019-05-11T02:03:44.391Z,3.60
2019-05-11T02:06:18.705Z,3.60
2019-05-11T02:08:54.173Z,3.70
2019-05-11T02:11:25.979Z,3.60
2019-05-11T02:13:55.944Z,3.70
2019-05-11T02:16:34.651Z,3.60
2019-05-11T02:19:06.093Z,3.60
2019-05-11T02:21:38.518Z,3.60
2019-05-11T02:24:12.537Z,3.70
2019-05-11T02:26:45.458Z,3.70
2019-05-11T02:29:20.718Z,3.70
2019-05-11T02:31:55.425Z,3.70
2019-05-11T02:34:27.409Z,3.70
2019-05-11T02:37:02.849Z,3.70
2019-05-11T02:39:33.834Z,3.70
2019-05-11T02:42:06.909Z,3.80
2019-05-11T02:44:40.670Z,3.80
2019-05-11T02:47:13.328Z,3.80
2019-05-11T02:49:44.794Z,3.80
2019-05-11T02:52:16.791Z,3.90
2019-05-11T02:54:52.402Z,3.90
2019-05-11T02:57:28.688Z,3.90
2019-05-11T03:00:02.240Z,3.90
2019-05-11T03:02:37.641Z,3.90
2019-05-11T03:05:09.757Z,3.90
2019-05-11T03:07:42.510Z,3.90
2019-05-11T03:10:14.705Z,3.90
2019-05-11T03:12:47.369Z,4.00
2019-05-11T03:15:18.838Z,4.00
2019-05-11T03:17:49.619Z,4.00
2019-05-11T03:20:22.585Z,4.00
2019-05-11T03:22:59.508Z,4.10
2019-05-11T03:25:31.862Z,4.10
2019-05-11T03:28:03.690Z,4.10
2019-05-11T03:30:33.638Z,4.10
2019-05-11T03:33:05.014Z,4.10
2019-05-11T03:35:39.749Z,4.10
2019-05-11T03:38:11.632Z,4.20
2019-05-11T03:40:42.229Z,4.20
2019-05-11T03:43:11.919Z,4.20
2019-05-11T03:45:41.249Z,4.20
2019-05-11T03:48:11.961Z,4.30
2019-05-11T03:50:41.357Z,4.30
2019-05-11T03:53:14.762Z,4.30
2019-05-11T03:55:47.169Z,4.40
2019-05-11T03:58:17.203Z,4.50
2019-05-11T04:00:48.625Z,4.60
2019-05-11T04:03:18.893Z,4.70
2019-05-11T04:05:50.678Z,4.70
2019-05-11T04:08:22.752Z,4.90
2019-05-11T04:10:54.805Z,5.20
2019-05-11T04:13:28.498Z,5.40
2019-05-11T04:16:01.201Z,5.40
2019-05-11T04:18:31.316Z,5.60
2019-05-11T04:21:02.875Z,5.70
2019-05-11T04:23:34.765Z,5.80
2019-05-11T04:26:11.703Z,6.10
2019-05-11T04:28:46.553Z,6.30
2019-05-11T04:31:19.027Z,6.60
2019-05-11T04:33:50.929Z,6.90
2019-05-11T04:36:25.458Z,7.50
2019-05-11T04:38:56.914Z,7.70
2019-05-11T04:41:28.853Z,8.10
2019-05-11T04:44:02.349Z,8.20
2019-05-11T04:46:35.849Z,8.30
2019-05-11T04:49:09.422Z,8.40
2019-05-11T04:51:41.101Z,8.30
2019-05-11T04:54:14.520Z,8.50
2019-05-11T04:56:47.051Z,8.70
2019-05-11T04:59:19.137Z,8.30
2019-05-11T05:01:52.689Z,8.30
2019-05-11T05:04:24.177Z,8.70
2019-05-11T05:06:59.962Z,8.60
2019-05-11T05:09:29.283Z,8.30
2019-05-11T05:12:00.947Z,8.30
2019-05-11T05:14:35.999Z,8.10
2019-05-11T05:17:07.969Z,8.20
2019-05-11T05:19:44.008Z,8.10
2019-05-11T05:22:19.273Z,8.20
2019-05-11T05:24:54.222Z,8.00
2019-05-11T05:27:31.857Z,7.40
2019-05-11T05:30:02.163Z,7.50
2019-05-11T05:32:37.962Z,7.80
2019-05-11T05:35:11.531Z,8.10
2019-05-11T05:37:45.667Z,8.50
2019-05-11T05:40:18.129Z,8.90
2019-05-11T05:42:49.610Z,9.20
2019-05-11T05:45:28.299Z,9.40
2019-05-11T05:48:00.134Z,9.40
2019-05-11T05:50:31.542Z,9.30
2019-05-11T05:53:04.405Z,9.80
2019-05-11T05:55:38.392Z,9.90
2019-05-11T05:58:12.136Z,10.10
2019-05-11T06:00:48.205Z,10.30
2019-05-11T06:03:21.171Z,10.70
2019-05-11T06:05:53.285Z,10.70
2019-05-11T06:08:25.966Z,11.00
2019-05-11T06:10:58.338Z,10.90
2019-05-11T06:13:44.611Z,10.90
2019-05-11T06:16:07.292Z,11.00
2019-05-11T06:18:39.623Z,11.20
2019-05-11T06:21:11.050Z,11.20
2019-05-11T06:23:44.013Z,11.30
2019-05-11T06:26:15.357Z,11.40
2019-05-11T06:28:51.032Z,11.40
2019-05-11T06:31:23.288Z,11.30
2019-05-11T06:33:56.733Z,11.00
2019-05-11T06:36:33.418Z,11.30
2019-05-11T06:39:04.517Z,11.00
2019-05-11T06:41:37.494Z,10.80
2019-05-11T06:44:10.514Z,10.70
2019-05-11T06:46:42.739Z,10.80
2019-05-11T06:49:14.488Z,10.90
2019-05-11T06:51:47.381Z,10.90
2019-05-11T06:54:18.819Z,10.70
2019-05-11T06:56:49.705Z,10.60
2019-05-11T06:59:24.169Z,10.70
2019-05-11T07:01:58.601Z,10.60
2019-05-11T07:04:29.241Z,10.50
2019-05-11T07:07:01.715Z,10.60
2019-05-11T07:09:33.229Z,10.50
2019-05-11T07:12:03.918Z,10.50
2019-05-11T07:14:35.420Z,10.20
2019-05-11T07:17:09.202Z,10.40
2019-05-11T07:19:47.384Z,10.60
2019-05-11T07:22:18.069Z,10.60
2019-05-11T07:24:50.345Z,10.60
2019-05-11T07:27:22.871Z,10.50
2019-05-11T07:29:53.956Z,10.50
2019-05-11T07:32:29.191Z,10.40
2019-05-11T07:35:00.276Z,10.60
2019-05-11T07:37:35.588Z,10.70
2019-05-11T07:40:10.520Z,10.80
2019-05-11T07:42:45.014Z,10.80
2019-05-11T07:45:18.027Z,11.10
2019-05-11T07:47:53.089Z,10.50
2019-05-11T07:50:23.965Z,10.40
2019-05-11T07:52:58.833Z,10.90
2019-05-11T07:55:32.732Z,10.80
2019-05-11T07:58:05.156Z,10.30
2019-05-11T08:00:40.852Z,10.30
2019-05-11T08:03:13.720Z,10.30
2019-05-11T08:05:47.999Z,9.90
2019-05-11T08:08:25.074Z,9.80
2019-05-11T08:10:54.970Z,9.80
2019-05-11T08:13:28.345Z,9.40
2019-05-11T08:15:59.945Z,9.50
2019-05-11T08:18:31.772Z,9.60
2019-05-11T08:21:08.690Z,9.70
2019-05-11T08:23:40.726Z,9.60
2019-05-11T08:26:21.868Z,9.90
2019-05-11T08:28:51.617Z,9.60
2019-05-11T08:31:24.135Z,9.80
2019-05-11T08:33:58.429Z,10.20
2019-05-11T08:36:32.057Z,10.30
2019-05-11T08:39:07.672Z,10.40
2019-05-11T08:41:39.029Z,10.60
2019-05-11T08:44:12.705Z,10.60
2019-05-11T08:46:47.852Z,10.60
2019-05-11T08:49:21.244Z,11.10
2019-05-11T08:51:53.691Z,11.30
2019-05-11T08:54:24.346Z,11.70
2019-05-11T08:56:54.077Z,11.90
2019-05-11T08:59:27.845Z,12.40
2019-05-11T09:02:01.456Z,12.70
2019-05-11T09:04:39.248Z,13.10
2019-05-11T09:07:10.045Z,13.20
2019-05-11T09:09:42.445Z,13.10
2019-05-11T09:12:14.893Z,13.10
2019-05-11T09:14:48.746Z,13.30
2019-05-11T09:17:24.450Z,13.10
2019-05-11T09:19:55.396Z,12.80
2019-05-11T09:22:28.889Z,11.20
2019-05-11T09:24:59.510Z,10.30
2019-05-11T09:27:31.142Z,10.20
2019-05-11T09:30:03.631Z,10.80
2019-05-11T09:32:38.386Z,10.60
2019-05-11T09:35:09.431Z,10.70
2019-05-11T09:37:41.424Z,11.50
2019-05-11T09:40:12.748Z,12.10
2019-05-11T09:42:44.746Z,12.00
2019-05-11T09:45:15.802Z,10.90
2019-05-11T09:47:47.918Z,11.80
2019-05-11T09:50:19.201Z,11.90
2019-05-11T09:52:51.929Z,11.90
2019-05-11T09:55:25.337Z,11.60
2019-05-11T09:57:58.027Z,12.30
2019-05-11T10:00:30.232Z,12.80
2019-05-11T10:03:02.679Z,13.20
2019-05-11T10:05:38.300Z,13.20
2019-05-11T10:08:11.164Z,13.20
2019-05-11T10:10:48.783Z,11.90
2019-05-11T10:13:20.780Z,11.00
2019-05-11T10:16:03.577Z,11.00
2019-05-11T10:18:28.000Z,11.80
2019-05-11T10:21:00.300Z,10.70
2019-05-11T10:23:32.379Z,10.10
2019-05-11T10:26:02.744Z,11.50
2019-05-11T10:28:32.119Z,12.20
2019-05-11T10:31:03.052Z,11.70
2019-05-11T10:33:38.078Z,12.20
2019-05-11T10:36:12.899Z,12.20
2019-05-11T10:38:48.608Z,12.50
2019-05-11T10:41:21.592Z,13.20
2019-05-11T10:43:54.556Z,11.90
2019-05-11T10:46:38.093Z,10.90
2019-05-11T10:49:10.809Z,11.10
2019-05-11T10:51:48.469Z,11.60
2019-05-11T10:54:18.830Z,10.40
2019-05-11T10:56:50.793Z,9.80
2019-05-11T10:59:23.862Z,9.90
2019-05-11T11:01:58.795Z,10.50
2019-05-11T11:04:33.872Z,11.50
2019-05-11T11:07:05.081Z,12.20
2019-05-11T11:09:38.461Z,11.20
2019-05-11T11:12:09.787Z,10.90
2019-05-11T11:14:42.867Z,10.30
2019-05-11T11:17:19.129Z,10.00
2019-05-11T11:19:51.032Z,9.40
2019-05-11T11:22:36.980Z,9.90
2019-05-11T11:25:02.312Z,9.90
2019-05-11T11:27:37.934Z,9.80
2019-05-11T11:30:10.579Z,9.30
2019-05-11T11:32:45.057Z,9.70
2019-05-11T11:35:19.115Z,9.20
2019-05-11T11:37:53.909Z,8.80
2019-05-11T11:40:29.982Z,10.00
2019-05-11T11:43:00.079Z,9.80
2019-05-11T11:45:31.767Z,9.60
2019-05-11T11:48:04.397Z,9.90
2019-05-11T11:50:34.473Z,10.40
2019-05-11T11:53:08.515Z,9.70
2019-05-11T11:55:41.698Z,9.80
2019-05-11T11:58:23.778Z,8.70
2019-05-11T12:00:58.697Z,8.90
2019-05-11T12:03:41.717Z,9.20
2019-05-11T12:06:14.526Z,9.50
2019-05-11T12:08:50.001Z,9.70
2019-05-11T12:11:20.979Z,9.40
2019-05-11T12:13:50.768Z,8.70
2019-05-11T12:16:24.401Z,8.60
2019-05-11T12:18:59.849Z,8.70
2019-05-11T12:21:33.545Z,8.50
2019-05-11T12:24:02.886Z,8.40
2019-05-11T12:26:32.906Z,8.10
2019-05-11T12:29:05.497Z,8.50
2019-05-11T12:31:37.554Z,8.60
2019-05-11T12:34:08.784Z,8.20
2019-05-11T12:36:41.490Z,8.20
2019-05-11T12:39:11.368Z,7.40
2019-05-11T12:41:47.798Z,7.60
2019-05-11T12:44:20.405Z,7.80
2019-05-11T12:46:52.340Z,8.20
2019-05-11T12:49:28.671Z,8.20
2019-05-11T12:52:01.837Z,8.20
2019-05-11T12:54:38.375Z,8.40
2019-05-11T12:57:09.035Z,7.80
2019-05-11T12:59:38.992Z,7.90
2019-05-11T13:02:12.066Z,7.20
2019-05-11T13:04:44.701Z,7.60
2019-05-11T13:07:19.538Z,7.90
2019-05-11T13:09:51.620Z,7.80
2019-05-11T13:12:23.704Z,7.90
2019-05-11T13:14:52.952Z,8.30
2019-05-11T13:17:34.981Z,8.50
2019-05-11T13:19:54.992Z,8.20
2019-05-11T13:22:24.925Z,8.10
2019-05-11T13:24:55.340Z,8.50
2019-05-11T13:27:28.338Z,8.30
2019-05-11T13:30:03.454Z,8.20
2019-05-11T13:32:38.236Z,8.10
2019-05-11T13:35:09.425Z,8.50
2019-05-11T13:37:39.893Z,8.40
2019-05-11T13:40:10.557Z,8.10
2019-05-11T13:42:42.105Z,8.00
2019-05-11T13:45:20.068Z,8.40
2019-05-11T13:47:55.918Z,8.40
2019-05-11T13:50:29.687Z,7.80
2019-05-11T13:53:03.295Z,8.20
2019-05-11T13:55:38.998Z,8.70
2019-05-11T13:58:14.584Z,8.70
2019-05-11T14:00:48.078Z,8.70
2019-05-11T14:03:20.683Z,8.70
2019-05-11T14:05:53.191Z,8.60
2019-05-11T14:08:28.012Z,8.70
2019-05-11T14:11:01.133Z,9.60
2019-05-11T14:13:32.296Z,8.90
2019-05-11T14:16:05.276Z,8.70
2019-05-11T14:18:38.675Z,9.00
2019-05-11T14:21:14.410Z,9.30
2019-05-11T14:23:47.749Z,9.40
2019-05-11T14:26:21.052Z,8.90
2019-05-11T14:28:55.518Z,9.50
2019-05-11T14:31:28.147Z,9.90
2019-05-11T14:34:00.159Z,8.70
2019-05-11T14:36:38.715Z,8.80
2019-05-11T14:39:10.414Z,8.70
2019-05-11T14:41:41.995Z,8.70
2019-05-11T14:44:13.000Z,8.50
2019-05-11T14:46:47.761Z,8.80
2019-05-11T14:49:21.257Z,8.60
2019-05-11T14:51:52.893Z,7.90
2019-05-11T14:54:25.953Z,7.80
2019-05-11T14:56:58.501Z,7.90
2019-05-11T14:59:30.950Z,7.70
2019-05-11T15:02:05.908Z,7.60
2019-05-11T15:04:39.541Z,7.70
2019-05-11T15:07:13.016Z,8.20
2019-05-11T15:09:48.115Z,8.60
2019-05-11T15:12:20.182Z,9.20
2019-05-11T15:14:52.275Z,9.60
2019-05-11T15:17:24.245Z,9.80
2019-05-11T15:19:58.035Z,9.80
2019-05-11T15:22:30.036Z,10.20
2019-05-11T15:25:02.487Z,10.40
2019-05-11T15:27:37.932Z,10.40
2019-05-11T15:30:08.985Z,10.20
2019-05-11T15:32:42.965Z,10.40
2019-05-11T15:35:18.212Z,10.50
2019-05-11T15:37:50.601Z,10.30
2019-05-11T15:40:23.893Z,10.10
2019-05-11T15:42:55.756Z,10.10
2019-05-11T15:45:30.345Z,10.20
2019-05-11T15:48:01.563Z,10.50
2019-05-11T15:50:33.773Z,11.00
2019-05-11T15:53:08.762Z,11.30
2019-05-11T15:55:47.562Z,11.50
2019-05-11T15:58:21.825Z,11.50
2019-05-11T16:00:53.263Z,11.70
2019-05-11T16:03:28.537Z,11.90
2019-05-11T16:06:02.457Z,12.10
2019-05-11T16:08:34.986Z,12.10
2019-05-11T16:11:11.722Z,11.70
2019-05-11T16:13:48.209Z,11.50
2019-05-11T16:16:21.866Z,11.40
2019-05-11T16:19:10.603Z,10.80
2019-05-11T16:21:38.146Z,10.70
2019-05-11T16:24:10.686Z,10.30
2019-05-11T16:26:47.485Z,10.40
2019-05-11T16:29:20.971Z,10.30
2019-05-11T16:31:53.468Z,10.40
2019-05-11T16:34:27.876Z,10.40
2019-05-11T16:36:59.927Z,10.40
2019-05-11T16:39:38.499Z,10.70
2019-05-11T16:42:10.613Z,10.70
2019-05-11T16:44:45.750Z,10.80
2019-05-11T16:47:19.627Z,10.90
2019-05-11T16:49:52.568Z,10.60
2019-05-11T16:52:28.007Z,10.50
2019-05-11T16:55:04.437Z,10.50
2019-05-11T16:57:38.220Z,9.70
2019-05-11T17:00:13.677Z,9.70
2019-05-11T17:02:44.837Z,10.10
2019-05-11T17:05:33.295Z,9.80
2019-05-11T17:07:54.642Z,9.60
2019-05-11T17:10:28.397Z,9.80
2019-05-11T17:13:03.003Z,10.20
2019-05-11T17:15:36.126Z,10.40
2019-05-11T17:18:12.129Z,10.40
2019-05-11T17:20:46.722Z,10.40
2019-05-11T17:23:25.049Z,10.20
2019-05-11T17:26:00.177Z,10.40
2019-05-11T17:28:34.734Z,10.50
2019-05-11T17:31:08.029Z,10.30
2019-05-11T17:33:41.865Z,10.60
2019-05-11T17:36:14.904Z,10.70
2019-05-11T17:38:48.099Z,10.70
2019-05-11T17:41:17.909Z,10.40
2019-05-11T17:43:47.982Z,10.50
2019-05-11T17:46:23.234Z,10.60
2019-05-11T17:49:04.920Z,10.70
2019-05-11T17:51:39.685Z,10.70
2019-05-11T17:54:24.205Z,10.50
2019-05-11T17:57:00.123Z,10.10
2019-05-11T17:59:34.131Z,9.80
2019-05-11T18:02:13.201Z,9.70
2019-05-11T18:04:44.976Z,10.00
2019-05-11T18:07:27.501Z,10.20
2019-05-11T18:09:58.155Z,10.20
2019-05-11T18:12:33.411Z,10.20
2019-05-11T18:15:04.881Z,10.20
2019-05-11T18:17:40.566Z,10.20
2019-05-11T18:20:17.957Z,10.40
2019-05-11T18:22:49.092Z,10.40
2019-05-11T18:25:24.853Z,10.30
2019-05-11T18:27:58.185Z,10.20
2019-05-11T18:30:31.824Z,10.20
2019-05-11T18:33:02.893Z,10.20
2019-05-11T18:35:33.097Z,10.10
2019-05-11T18:38:08.552Z,10.10
2019-05-11T18:40:40.180Z,9.90
2019-05-11T18:43:13.363Z,9.80
2019-05-11T18:45:44.745Z,9.90
2019-05-11T18:48:19.691Z,9.90
2019-05-11T18:50:56.267Z,9.90
2019-05-11T18:53:30.220Z,9.90
2019-05-11T18:56:08.970Z,10.00
2019-05-11T18:58:42.442Z,9.90
2019-05-11T19:01:17.804Z,9.80
2019-05-11T19:03:51.857Z,9.80
2019-05-11T19:06:28.781Z,9.80
2019-05-11T19:09:01.794Z,9.80
2019-05-11T19:11:42.344Z,9.70
2019-05-11T19:14:11.895Z,9.30
2019-05-11T19:16:49.159Z,9.00
2019-05-11T19:19:20.246Z,9.20
2019-05-11T19:21:50.215Z,9.40
2019-05-11T19:24:19.994Z,9.20
2019-05-11T19:26:52.833Z,8.40
2019-05-11T19:29:24.921Z,8.60
2019-05-11T19:31:58.128Z,8.90
2019-05-11T19:34:30.811Z,8.70
2019-05-11T19:37:12.460Z,8.20
2019-05-11T19:39:48.422Z,8.20
2019-05-11T19:42:22.764Z,8.50
2019-05-11T19:44:56.482Z,8.30
2019-05-11T19:47:30.913Z,8.30
2019-05-11T19:50:03.552Z,8.50
2019-05-11T19:52:38.255Z,8.10
2019-05-11T19:55:08.802Z,8.30
2019-05-11T19:57:42.642Z,8.00
2019-05-11T20:00:18.150Z,8.00
2019-05-11T20:02:52.094Z,8.20
2019-05-11T20:05:24.648Z,7.60
2019-05-11T20:07:58.317Z,7.80
2019-05-11T20:10:33.831Z,8.00
2019-05-11T20:13:07.801Z,8.00
2019-05-11T20:15:40.269Z,7.90
2019-05-11T20:18:14.119Z,8.00
2019-05-11T20:20:47.909Z,8.10
2019-05-11T20:23:19.381Z,8.10
2019-05-11T20:25:50.416Z,7.90
2019-05-11T20:28:22.128Z,7.90
2019-05-11T20:30:53.620Z,7.80
2019-05-11T20:33:27.997Z,7.80
2019-05-11T20:35:58.986Z,7.80
2019-05-11T20:38:31.382Z,7.90
2019-05-11T20:41:08.298Z,8.10
2019-05-11T20:43:42.078Z,8.10
2019-05-11T20:46:13.105Z,8.20
2019-05-11T20:48:49.687Z,8.10
2019-05-11T20:51:33.237Z,8.10
2019-05-11T20:53:55.312Z,8.10
2019-05-11T20:56:28.451Z,8.10
2019-05-11T20:58:59.942Z,8.00
2019-05-11T21:01:38.733Z,8.10
2019-05-11T21:04:11.688Z,7.80
2019-05-11T21:06:42.971Z,7.60
2019-05-11T21:09:18.451Z,7.70
2019-05-11T21:11:51.853Z,7.60
2019-05-11T21:14:28.823Z,7.40
2019-05-11T21:17:01.039Z,7.40
2019-05-11T21:19:31.908Z,7.40
2019-05-11T21:22:05.547Z,7.20
2019-05-11T21:24:43.976Z,6.80
2019-05-11T21:27:19.917Z,6.90
2019-05-11T21:29:50.946Z,7.00
2019-05-11T21:32:22.019Z,7.10
2019-05-11T21:34:58.430Z,7.10
2019-05-11T21:37:31.804Z,7.10
2019-05-11T21:40:04.924Z,7.10
2019-05-11T21:42:38.903Z,7.10
2019-05-11T21:45:09.842Z,7.10
2019-05-11T21:47:39.943Z,7.10
2019-05-11T21:50:12.659Z,7.20
2019-05-11T21:52:44.707Z,7.10
2019-05-11T21:55:16.710Z,7.40
2019-05-11T21:57:50.822Z,7.60
2019-05-11T22:00:25.079Z,7.50
2019-05-11T22:02:58.155Z,7.60
2019-05-11T22:05:38.134Z,7.50
2019-05-11T22:08:12.723Z,7.50
2019-05-11T22:10:43.902Z,7.50
2019-05-11T22:13:17.753Z,7.50
2019-05-11T22:15:48.980Z,7.40
2019-05-11T22:18:30.884Z,7.10
2019-05-11T22:20:54.853Z,7.00
2019-05-11T22:23:28.167Z,6.90
2019-05-11T22:25:58.743Z,7.10
2019-05-11T22:28:29.741Z,7.30
2019-05-11T22:31:02.681Z,7.10
2019-05-11T22:33:38.628Z,7.00
2019-05-11T22:36:11.093Z,7.00
2019-05-11T22:38:44.255Z,6.90
2019-05-11T22:41:18.259Z,6.90
2019-05-11T22:43:50.644Z,6.90
2019-05-11T22:46:23.212Z,6.80
2019-05-11T22:48:54.042Z,6.70
2019-05-11T22:51:34.400Z,6.60
2019-05-11T22:54:08.070Z,6.70
2019-05-11T22:56:40.637Z,6.70
2019-05-11T22:59:18.354Z,6.80
2019-05-11T23:01:48.950Z,6.80
2019-05-11T23:04:24.454Z,6.80
2019-05-11T23:06:58.427Z,6.90
2019-05-11T23:09:29.899Z,7.00
2019-05-11T23:12:03.120Z,7.00
2019-05-11T23:14:37.672Z,6.70
2019-05-11T23:17:08.948Z,6.60
2019-05-11T23:19:41.013Z,6.40
2019-05-11T23:22:12.813Z,6.30
2019-05-11T23:24:48.416Z,6.40
2019-05-11T23:27:19.159Z,6.40
2019-05-11T23:29:50.333Z,6.40
2019-05-11T23:32:21.840Z,6.50
2019-05-11T23:34:55.190Z,6.60
2019-05-11T23:37:27.841Z,6.40
2019-05-11T23:39:59.084Z,6.50
2019-05-11T23:42:30.951Z,6.70
2019-05-11T23:45:01.445Z,6.80
2019-05-11T23:47:39.004Z,6.80
2019-05-11T23:50:12.120Z,6.80
2019-05-11T23:52:48.526Z,6.60
2019-05-11T23:55:23.565Z,6.60
2019-05-11T23:57:57.657Z,6.70
